Terminal Aerodrome Forecast
Issued by NWS Cleveland, OH

Home | Current Version | Previous Version | Text Only | Print | Product List | Glossary On
Versions: 1 2 3 4 5 6 7 8 9 10 11 12 13 14 15 16 17 18 19 20
402
FTUS41 KCLE 170525
TAFMFD
TAF
KMFD 170525Z 1706/1806 16010KT 4SM -RA BR SCT005 OVC035
      TEMPO 1706/1710 1SM -RA BR OVC005
     FM171000 19012KT 3SM -RA BR SCT015 OVC025
     FM171800 24014G22KT 5SM BR SCT006 OVC012=

USA.gov is the U.S. government's official web portal to all federal, state and local government web resources and services.